Time;durP1;ratioP1;P1;durP2;ratioP2;P2;SDS_P1;SDS_P2;PMS_P1;PMS_P2;Temp;Humidity;BMP_temperature;BMP_pressure;BME280_temperature;BME280_humidity;BME280_pressure;Samples;Min_cycle;Max_cycle;Signal;HPM_P1;HPM_P2
2023/03/12 00:01:19;;;;;;;4.00;0.55;;;1.70;99.90;;;-0.08;94.35;100319.06;4958531;28;20129;-79
2023/03/12 00:03:46;;;;;;;4.13;0.55;;;1.70;99.90;;;-0.12;93.50;100328.56;4974040;28;20179;-80
2023/03/12 00:06:12;;;;;;;8.07;0.73;;;1.70;99.90;;;-0.13;92.66;100328.56;4953707;28;20098;-79
2023/03/12 00:08:39;;;;;;;4.97;1.23;;;1.70;99.90;;;-0.19;92.77;100326.91;4977576;28;20398;-79
2023/03/12 00:11:10;;;;;;;2.05;0.32;;;;;;;-0.22;92.80;100326.91;4996067;28;20067;-79
2023/03/12 00:13:36;;;;;;;7.97;0.75;;;1.60;99.90;;;-0.28;92.73;100334.72;4973522;28;20509;-80
2023/03/12 00:16:14;;;;;;;4.40;0.50;;;1.50;99.90;;;-0.35;91.79;100327.91;4965405;28;20052;-80
2023/03/12 00:18:41;;;;;;;4.97;0.65;;;1.50;99.90;;;-0.37;90.23;100338.25;4980056;28;20037;-78
2023/03/12 00:21:08;;;;;;;2.13;0.45;;;1.50;99.90;;;-0.36;88.51;100333.97;4972781;28;20041;-80
2023/03/12 00:23:40;;;;;;;7.45;0.95;;;1.40;99.90;;;-0.39;86.67;100334.81;4969937;28;20026;-80
2023/03/12 00:26:10;;;;;;;4.97;1.38;;;1.50;99.90;;;-0.44;84.73;100345.22;4971449;28;20511;-81
2023/03/12 00:28:35;;;;;;;8.27;1.20;;;1.40;99.90;;;-0.48;84.50;100345.25;4976314;28;20037;-80
2023/03/12 00:31:13;;;;;;;1.63;0.30;;;1.40;99.90;;;-0.52;84.08;100348.72;4963604;28;20025;-79
2023/03/12 00:33:39;;;;;;;1.23;0.22;;;1.30;99.90;;;-0.58;83.52;100359.09;5002671;28;20036;-80
2023/03/12 00:36:08;;;;;;;4.13;0.98;;;1.30;99.90;;;-0.62;83.20;100356.56;4978147;28;20037;-81
2023/03/12 00:38:37;;;;;;;3.08;0.30;;;1.20;99.90;;;-0.69;82.83;100364.34;4961617;28;20029;-81
2023/03/12 00:41:03;;;;;;;5.25;0.70;;;1.10;99.90;;;-0.74;82.61;100358.34;4948043;28;20529;-80
2023/03/12 00:43:29;;;;;;;5.43;0.50;;;1.10;99.90;;;-0.82;83.29;100355.84;4992658;28;20532;-79
2023/03/12 00:45:54;;;;;;;5.35;0.40;;;1.10;99.90;;;-0.84;82.78;100361.00;5012302;28;20120;-80
2023/03/12 00:48:20;;;;;;;1.02;0.25;;;1.00;99.90;;;-0.94;83.09;100368.81;4991746;28;20104;-81
2023/03/12 00:50:51;;;;;;;3.13;0.57;;;0.90;99.90;;;-0.96;83.08;100371.41;4960857;28;20037;-81
2023/03/12 00:53:17;;;;;;;5.00;0.70;;;0.90;99.90;;;-0.98;82.86;100370.56;5003350;23;20044;-81
2023/03/12 00:55:45;;;;;;;2.92;0.60;;;0.90;99.90;;;-1.03;82.55;100367.13;4989092;28;20032;-79
2023/03/12 00:58:11;;;;;;;1.77;0.63;;;0.90;99.90;;;-1.03;82.79;100369.72;4981572;28;20513;-81
2023/03/12 01:00:36;;;;;;;7.13;0.55;;;0.80;99.90;;;-1.08;82.84;100371.44;4997089;28;20051;-81
2023/03/12 01:03:05;;;;;;;12.35;1.00;;;0.80;99.90;;;-1.09;82.80;100377.50;4990167;28;20040;-80
2023/03/12 01:05:36;;;;;;;6.80;0.65;;;0.80;99.90;;;-1.14;83.20;100376.69;4992035;28;20033;-81
2023/03/12 01:08:04;;;;;;;6.43;0.88;;;0.70;99.90;;;-1.14;82.81;100387.00;4978094;28;20045;-80
2023/03/12 01:10:30;;;;;;;6.72;0.95;;;0.80;99.90;;;-1.12;82.73;100382.69;4997989;28;20136;-80
2023/03/12 01:13:01;;;;;;;9.98;0.60;;;0.70;99.90;;;-1.13;82.58;100391.28;5019806;28;20032;-81
2023/03/12 01:15:28;;;;;;;5.15;0.77;;;0.70;99.90;;;-1.14;82.64;100387.00;4997353;28;20030;-80
2023/03/12 01:17:53;;;;;;;6.10;1.05;;;0.70;99.90;;;-1.14;82.72;100381.84;4994074;28;20036;-80
2023/03/12 01:20:21;;;;;;;6.57;0.65;;;0.70;99.90;;;-1.08;82.65;100390.44;4987653;28;20401;-80
2023/03/12 01:22:55;;;;;;;6.22;0.77;;;0.70;99.90;;;-1.06;82.34;100392.97;4976542;28;20029;-80
2023/03/12 01:25:21;;;;;;;9.18;0.93;;;0.70;99.90;;;-1.06;82.28;100382.63;4997885;28;20100;-81
2023/03/12 01:27:47;;;;;;;7.45;1.08;;;0.70;99.90;;;-1.04;82.44;100397.31;4984443;28;20037;-80
2023/03/12 01:30:14;;;;;;;14.40;1.15;;;0.70;99.90;;;-1.02;82.91;100393.84;4979924;28;20520;-79
2023/03/12 01:32:45;;;;;;;10.82;0.80;;;0.70;99.90;;;-1.02;83.81;100393.84;4984142;28;20021;-81
2023/03/12 01:35:11;;;;;;;9.65;0.82;;;0.70;99.90;;;-1.07;84.16;100388.69;5014564;28;20100;-80
2023/03/12 01:37:39;;;;;;;10.70;1.05;;;0.70;99.90;;;-1.10;85.15;100393.84;5014215;28;20137;-83
2023/03/12 01:40:05;;;;;;;11.07;1.23;;;0.60;99.90;;;-1.16;85.64;100394.75;5017490;28;20048;-81
2023/03/12 01:42:40;;;;;;;9.55;0.65;;;0.60;99.90;;;-1.19;86.26;100386.16;4940764;28;20029;-80
2023/03/12 01:46:06;;;;;;;8.55;0.65;;;0.60;99.90;;;-1.21;86.51;100391.31;4968407;28;20049;-81
2023/03/12 01:49:03;;;;;;;14.27;0.90;;;0.50;99.90;;;-1.27;86.84;100396.53;5016836;28;20216;-80
2023/03/12 01:51:44;;;;;;;10.25;1.40;;;0.50;99.90;;;-1.27;87.76;100391.38;5011285;28;20116;-82
2023/03/12 01:54:38;;;;;;;15.98;1.08;;;0.50;99.90;;;-1.30;87.96;100388.78;4997314;28;20043;-79
2023/03/12 01:57:12;;;;;;;11.75;1.35;;;0.50;99.90;;;-1.31;88.34;100394.81;4995515;28;20508;-80
2023/03/12 01:59:55;;;;;;;6.20;0.98;;;0.50;99.90;;;-1.32;89.12;100399.13;4984198;28;20724;-79
2023/03/12 02:02:25;;;;;;;8.02;1.23;;;0.50;99.90;;;-1.34;89.30;100393.13;5020954;28;20120;-79
2023/03/12 02:05:13;;;;;;;13.50;1.27;;;0.50;99.90;;;-1.35;89.24;100393.09;5013535;28;20535;-80
2023/03/12 02:07:40;;;;;;;11.40;1.00;;;0.40;99.90;;;-1.41;89.74;100393.13;5010619;28;20475;-80
2023/03/12 02:10:06;;;;;;;16.35;1.40;;;0.40;99.90;;;-1.43;89.69;100397.44;5001222;28;20489;-80
2023/03/12 02:12:32;;;;;;;16.40;1.95;;;0.40;99.90;;;-1.43;90.12;100402.59;5005646;28;20388;-79
2023/03/12 02:14:57;;;;;;;15.80;1.17;;;0.30;99.90;;;-1.44;90.13;100399.16;5031861;28;20119;-80
2023/03/12 02:17:24;;;;;;;13.77;1.15;;;0.30;99.90;;;-1.46;90.68;100398.31;5022247;28;20028;-80
2023/03/12 02:20:17;;;;;;;3.97;0.65;;;0.30;99.90;;;-1.47;90.82;100397.44;4966020;28;20032;-81
2023/03/12 02:22:53;;;;;;;10.20;0.95;;;0.30;99.90;;;-1.46;90.59;100404.31;5037621;28;20033;-80
2023/03/12 02:25:36;;;;;;;13.65;2.85;;;0.30;99.90;;;-1.44;90.29;100399.16;4976874;28;20473;-80
2023/03/12 02:28:12;;;;;;;20.25;1.25;;;0.30;99.90;;;-1.46;90.73;100396.56;5002694;28;20045;-82
2023/03/12 02:30:41;;;;;;;;;;;0.30;99.90;;;-1.51;90.87;100400.91;4970548;28;20045;-80
2023/03/12 02:33:09;;;;;;;14.07;1.10;;;0.30;99.90;;;-1.52;91.21;100406.91;5014773;28;20315;-80
2023/03/12 02:35:41;;;;;;;9.00;0.73;;;0.30;99.90;;;-1.52;90.91;100418.97;4961158;28;20041;-81
2023/03/12 02:38:46;;;;;;;14.40;1.25;;;0.30;99.90;;;-1.52;91.25;100417.25;5007330;28;20032;-79
2023/03/12 02:41:36;;;;;;;10.30;1.10;;;0.30;99.90;;;-1.51;90.98;100423.25;5040169;28;20048;-79
2023/03/12 02:44:13;;;;;;;10.25;0.70;;;0.20;99.90;;;-1.56;91.12;100423.28;5032032;28;20033;-79
2023/03/12 02:46:54;;;;;;;13.18;1.00;;;0.20;99.90;;;-1.57;91.19;100431.91;5033115;28;21506;-79
2023/03/12 02:49:24;;;;;;;11.18;0.85;;;0.20;99.90;;;-1.56;91.24;100436.19;5018543;28;20045;-78
2023/03/12 02:52:00;;;;;;;;;;;;;;;;;;;;;
2023/03/12 02:54:26;;;;;;;14.02;1.08;;;0.20;99.90;;;-1.58;91.41;100437.91;5009758;28;20032;-78
2023/03/12 02:56:52;;;;;;;6.50;0.98;;;0.20;99.90;;;-1.57;91.56;100447.38;5008997;28;20394;-77
2023/03/12 02:59:28;;;;;;;15.13;1.13;;;0.20;99.90;;;-1.56;91.26;100446.50;5016622;28;20099;-78
2023/03/12 03:01:57;;;;;;;24.40;1.58;;;0.20;99.90;;;-1.60;91.24;100441.34;4993574;28;20400;-78
2023/03/12 03:04:33;;;;;;;10.73;1.10;;;0.10;99.90;;;-1.63;90.99;100452.56;5046611;28;20037;-78
2023/03/12 03:06:59;;;;;;;;;;;0.50;99.90;;;-1.70;91.28;100450.84;5013142;28;20070;-79
2023/03/12 03:09:26;;;;;;;10.27;1.13;;;0.00;99.90;;;-1.75;91.44;100447.38;5007609;28;19973;-78
2023/03/12 03:11:54;;;;;;;16.27;1.27;;;0.00;99.90;;;-1.79;92.09;100450.84;5002362;28;20040;-78
2023/03/12 03:14:22;;;;;;;8.93;1.50;;;0.00;99.90;;;-1.79;92.27;100456.00;5022508;28;20040;-78
2023/03/12 03:16:48;;;;;;;10.10;1.15;;;-0.10;99.90;;;-1.84;92.91;100458.59;5019829;28;20037;-79
2023/03/12 03:19:13;;;;;;;14.85;1.30;;;-0.10;99.90;;;-1.84;93.34;100465.47;5045463;28;20112;-79
2023/03/12 03:21:39;;;;;;;7.65;1.30;;;-0.10;99.90;;;-1.83;94.01;100455.16;5031158;28;20037;-79
2023/03/12 03:24:06;;;;;;;12.63;1.02;;;-0.10;99.90;;;-1.83;94.76;100460.31;5049481;28;20028;-78
2023/03/12 03:26:38;;;;;;;13.75;1.30;;;-0.10;99.90;;;-1.83;94.62;100464.63;5070277;28;20025;-79
2023/03/12 03:29:04;;;;;;;10.07;1.98;;;-0.10;99.90;;;-1.83;95.82;100462.06;4973956;28;20092;-80
2023/03/12 03:31:30;;;;;;;12.68;1.40;;;-0.10;99.90;;;-1.84;96.48;100468.06;5009904;28;20098;-80
2023/03/12 03:33:56;;;;;;;9.00;1.38;;;-0.10;99.90;;;-1.81;96.53;100475.78;5008947;28;20040;-80
2023/03/12 03:36:27;;;;;;;14.80;2.00;;;-0.10;99.90;;;-1.80;97.33;100480.09;4969989;28;20508;-78
2023/03/12 03:38:56;;;;;;;8.20;1.30;;;0.00;99.90;;;-1.77;98.32;100485.25;5026468;28;20036;-80
2023/03/12 03:41:22;;;;;;;13.02;1.20;;;0.00;99.90;;;-1.73;98.73;100481.81;5033345;28;20188;-79
2023/03/12 03:43:48;;;;;;;18.80;1.55;;;0.00;99.90;;;-1.73;99.42;100479.22;5006254;28;20036;-80
2023/03/12 03:46:20;;;;;;;7.57;1.42;;;0.10;99.90;;;-1.71;99.87;100486.09;4994377;28;20059;-79
2023/03/12 03:48:46;;;;;;;7.78;1.10;;;0.10;99.90;;;-1.66;100.00;100493.88;5004031;28;20048;-79
2023/03/12 03:51:11;;;;;;;12.25;1.23;;;0.10;99.90;;;-1.62;100.00;100494.72;4975031;28;20594;-82
2023/03/12 03:53:40;;;;;;;9.50;1.10;;;0.10;99.90;;;-1.62;100.00;100489.56;4997745;28;20041;-80
2023/03/12 03:56:13;;;;;;;10.15;1.52;;;0.20;99.90;;;-1.60;100.00;100482.66;4959113;28;20782;-79
2023/03/12 03:58:38;;;;;;;9.38;1.45;;;0.20;99.90;;;-1.57;100.00;100493.00;4999820;28;20032;-78
2023/03/12 04:01:05;;;;;;;9.07;1.48;;;0.20;99.90;;;-1.57;100.00;100482.69;5013442;28;20130;-78
2023/03/12 04:03:32;;;;;;;14.77;1.55;;;0.20;99.90;;;-1.56;100.00;100493.00;5040395;28;20032;-79
2023/03/12 04:06:03;;;;;;;10.10;1.83;;;0.20;99.90;;;-1.56;100.00;100489.56;5003075;28;20041;-79
2023/03/12 04:08:31;;;;;;;10.18;2.00;;;0.20;99.90;;;-1.57;100.00;100499.03;4992925;28;20044;-78
2023/03/12 04:10:57;;;;;;;8.18;1.48;;;0.20;99.90;;;-1.56;100.00;100503.31;5031976;28;20725;-79
2023/03/12 04:13:23;;;;;;;12.77;1.48;;;0.20;99.90;;;-1.55;100.00;100507.63;5046399;28;20028;-79
2023/03/12 04:15:52;;;;;;;12.07;1.38;;;0.20;99.90;;;-1.56;100.00;100498.16;5025855;28;20036;-79
2023/03/12 04:18:21;;;;;;;12.20;1.58;;;0.20;99.90;;;-1.54;100.00;100501.59;5003165;28;20039;-79
2023/03/12 04:20:49;;;;;;;13.63;1.63;;;0.20;99.90;;;-1.55;100.00;100497.31;5033983;28;20614;-79
2023/03/12 04:23:17;;;;;;;13.30;1.25;;;0.20;99.90;;;-1.56;100.00;100500.72;4997276;28;20037;-79
2023/03/12 04:25:48;;;;;;;18.35;1.52;;;0.20;99.90;;;-1.53;100.00;100503.34;4999281;28;20055;-78
2023/03/12 04:28:14;;;;;;;15.10;1.67;;;0.20;99.90;;;-1.54;100.00;100509.34;5048002;28;20036;-78
2023/03/12 04:30:40;;;;;;;17.38;1.40;;;0.20;99.90;;;-1.56;100.00;100518.81;4989205;28;20470;-78
2023/03/12 04:33:09;;;;;;;23.70;2.30;;;0.20;99.90;;;-1.58;100.00;100514.50;5010828;28;20039;-78
2023/03/12 04:35:50;;;;;;;11.45;1.42;;;0.20;99.90;;;-1.58;100.00;100512.78;4955738;28;20107;-78
2023/03/12 04:38:26;;;;;;;14.25;1.20;;;0.20;99.90;;;-1.59;100.00;100523.13;4982206;28;20554;-78
2023/03/12 04:40:59;;;;;;;;;;;0.20;99.90;;;-1.64;100.00;100520.56;5033991;28;20045;-77
2023/03/12 04:43:26;;;;;;;10.45;1.45;;;0.10;99.90;;;-1.65;100.00;100523.97;5042957;28;20299;-79
2023/03/12 04:45:52;;;;;;;11.57;1.80;;;0.10;99.90;;;-1.66;100.00;100514.53;5018766;28;20520;-78
2023/03/12 04:48:18;;;;;;;17.77;1.50;;;0.10;99.90;;;-1.67;100.00;100520.53;4981670;28;20039;-78
2023/03/12 04:50:43;;;;;;;6.85;1.48;;;0.10;99.90;;;-1.69;100.00;100524.84;5017453;28;20092;-76
2023/03/12 04:53:10;;;;;;;8.50;1.63;;;0.10;99.90;;;-1.69;100.00;100522.25;4994448;28;20106;-78
2023/03/12 04:55:43;;;;;;;19.90;2.10;;;0.10;99.90;;;-1.68;100.00;100524.84;4970377;28;20028;-79
2023/03/12 04:58:09;;;;;;;10.05;2.00;;;0.00;99.90;;;-1.69;100.00;100525.69;4964704;28;20607;-78
2023/03/12 05:00:35;;;;;;;18.73;2.63;;;0.00;99.90;;;-1.69;100.00;100530.00;4995825;28;20535;-78
2023/03/12 05:03:01;;;;;;;17.83;2.50;;;0.10;99.90;;;-1.69;100.00;100530.84;4977781;28;20184;-77
2023/03/12 05:05:35;;;;;;;11.55;2.80;;;0.10;99.90;;;-1.68;100.00;100534.31;4962370;28;20048;-78
2023/03/12 05:08:02;;;;;;;17.30;2.85;;;0.10;99.90;;;-1.67;100.00;100533.44;4996734;28;20106;-78
2023/03/12 05:10:28;;;;;;;19.15;3.85;;;0.10;99.90;;;-1.64;100.00;100538.63;5022242;28;20067;-77
2023/03/12 05:12:54;;;;;;;11.27;3.13;;;0.10;99.90;;;-1.63;100.00;100534.31;5030820;28;20045;-78
2023/03/12 05:15:25;;;;;;;17.65;3.70;;;0.10;99.90;;;-1.61;100.00;100535.19;4976068;28;20040;-78
2023/03/12 05:17:51;;;;;;;18.77;3.38;;;0.20;99.90;;;-1.60;100.00;100536.88;4971963;28;20040;-78
2023/03/12 05:20:17;;;;;;;16.50;3.60;;;0.20;99.90;;;-1.59;100.00;100542.06;4982323;28;20048;-78
2023/03/12 05:22:43;;;;;;;11.85;3.60;;;0.20;99.90;;;-1.59;100.00;100543.78;5021806;28;20510;-77
2023/03/12 05:25:10;;;;;;;16.85;4.55;;;0.20;99.90;;;-1.58;100.00;100542.91;4978597;28;20041;-78
2023/03/12 05:27:43;;;;;;;16.00;3.78;;;0.20;99.90;;;-1.58;100.00;100540.34;4987831;28;20044;-78
2023/03/12 05:30:10;;;;;;;11.40;4.10;;;0.20;99.90;;;-1.57;100.00;100545.50;4981839;28;20044;-78
2023/03/12 05:32:36;;;;;;;18.08;4.43;;;0.20;99.90;;;-1.56;100.00;100547.22;5022976;28;20029;-78
2023/03/12 05:35:02;;;;;;;11.63;4.28;;;0.20;99.90;;;-1.52;100.00;100550.66;4995855;28;20091;-78
2023/03/12 05:37:33;;;;;;;15.55;4.60;;;0.20;99.90;;;-1.48;100.00;100555.81;5063154;28;20025;-79
2023/03/12 05:39:59;;;;;;;18.73;4.40;;;0.20;99.90;;;-1.46;100.00;100556.69;4989880;28;20060;-78
2023/03/12 05:42:27;;;;;;;19.08;4.40;;;0.20;99.90;;;-1.43;100.00;100561.00;5021317;28;20590;-78
2023/03/12 05:44:53;;;;;;;24.20;5.38;;;0.20;99.90;;;-1.39;100.00;100565.28;5011009;28;20032;-79
2023/03/12 05:47:23;;;;;;;17.27;4.20;;;0.30;99.90;;;-1.36;100.00;100567.91;4989505;28;20111;-78
2023/03/12 05:49:49;;;;;;;22.25;4.68;;;0.30;99.90;;;-1.31;100.00;100570.47;4997475;28;20044;-78
2023/03/12 05:52:15;;;;;;;14.07;3.78;;;0.30;99.90;;;-1.26;100.00;100576.47;4993239;28;20031;-77
2023/03/12 05:54:41;;;;;;;14.95;4.15;;;0.30;99.90;;;-1.21;100.00;100574.75;5006894;28;20447;-78
2023/03/12 05:57:07;;;;;;;19.40;4.00;;;0.40;99.90;;;-1.17;100.00;100576.47;4996665;28;20029;-78
2023/03/12 05:59:33;;;;;;;14.60;4.38;;;0.40;99.90;;;-1.13;100.00;100573.03;5012351;28;20028;-77
2023/03/12 06:01:59;;;;;;;24.13;4.40;;;0.40;99.90;;;-0.91;100.00;100579.00;4997873;28;20036;-77
2023/03/12 06:04:28;;;;;;;13.50;4.32;;;0.50;99.90;;;-0.51;100.00;100594.44;5013346;28;20024;-78
2023/03/12 06:06:54;;;;;;;16.17;4.05;;;0.60;99.90;;;-0.55;100.00;100579.78;4993585;28;20478;-77
2023/03/12 06:09:20;;;;;;;16.63;4.45;;;0.80;99.90;;;1.05;99.89;100606.41;4990917;28;20053;-78
2023/03/12 06:11:46;;;;;;;17.83;4.22;;;1.20;99.90;;;1.44;95.74;100602.53;5003208;28;20040;-78
2023/03/12 06:14:12;;;;;;;15.50;3.67;;;1.40;99.90;;;1.18;93.96;100603.66;5005542;28;20080;-76
2023/03/12 06:16:38;;;;;;;16.75;4.15;;;1.60;99.90;;;1.81;91.59;100599.50;5022194;28;20021;-78
2023/03/12 06:19:04;;;;;;;10.38;3.65;;;2.10;99.90;;;5.35;85.54;100628.16;4996006;28;20513;-78
2023/03/12 06:21:35;;;;;;;16.50;3.67;;;2.90;99.90;;;6.46;75.75;100634.66;4976596;28;20029;-77
2023/03/12 06:24:01;;;;;;;17.00;3.53;;;3.60;99.90;;;6.63;71.87;100628.84;5035144;28;20051;-77
2023/03/12 06:26:30;;;;;;;11.13;3.28;;;4.30;99.90;;;9.23;66.53;100643.75;4985111;28;20563;-78
2023/03/12 06:29:05;;;;;;;13.75;3.50;;;5.10;99.90;;;9.75;61.94;100651.16;4984902;28;20079;-78
2023/03/12 06:31:31;;;;;;;13.97;3.40;;;5.60;99.90;;;7.36;63.07;100620.31;4993060;28;20040;-76
2023/03/12 06:33:57;;;;;;;9.80;3.80;;;5.70;99.90;;;6.21;66.13;100622.31;4982848;28;20029;-77
2023/03/12 06:36:29;;;;;;;21.23;4.57;;;5.50;99.90;;;6.66;68.24;100645.31;4975249;28;20044;-77
2023/03/12 06:38:54;;;;;;;15.73;3.92;;;5.90;99.90;;;11.29;60.29;100684.28;4974998;28;20034;-78
2023/03/12 06:41:20;;;;;;;11.50;2.90;;;6.80;99.90;;;13.65;53.96;100701.34;4998685;28;20127;-76
2023/03/12 06:43:46;;;;;;;11.70;3.13;;;8.10;99.90;;;15.46;49.57;100724.34;5010116;28;20552;-78
2023/03/12 06:46:23;;;;;;;15.55;3.95;;;9.30;99.90;;;16.46;47.10;100735.22;5024106;28;20485;-77
2023/03/12 06:48:49;;;;;;;13.20;3.25;;;10.40;99.90;;;17.49;45.10;100741.88;5013851;28;20064;-77
2023/03/12 06:51:16;;;;;;;15.70;3.67;;;11.30;99.90;;;18.35;43.26;100756.59;4969358;28;20052;-77
2023/03/12 06:53:45;;;;;;;13.90;3.65;;;12.10;99.90;;;18.93;41.85;100769.81;5009793;28;20147;-77
2023/03/12 06:56:14;;;;;;;11.77;2.70;;;12.80;99.90;;;19.54;40.84;100771.91;4988748;28;20133;-77
2023/03/12 06:58:40;;;;;;;14.05;3.15;;;13.50;99.90;;;19.85;39.75;100780.06;5043438;28;20078;-76
2023/03/12 07:01:07;;;;;;;11.82;2.95;;;13.90;99.90;;;20.42;39.04;100793.88;5006054;28;20040;-77
2023/03/12 07:03:33;;;;;;;15.88;3.30;;;14.60;99.90;;;21.25;38.15;100800.78;4967572;28;20137;-76
2023/03/12 07:06:02;;;;;;;7.95;2.53;;;15.30;99.90;;;21.27;37.04;100811.34;4985734;28;20108;-78
2023/03/12 07:08:30;;;;;;;12.73;2.88;;;15.90;99.90;;;21.91;36.81;100821.53;4980221;28;20036;-76
2023/03/12 07:10:59;;;;;;;13.93;3.10;;;16.20;98.90;;;21.59;35.96;100826.34;5007638;28;20063;-76
2023/03/12 07:13:24;;;;;;;13.70;2.97;;;16.50;98.40;;;21.67;36.02;100824.66;4995857;28;20500;-77
2023/03/12 07:15:50;;;;;;;16.88;2.75;;;16.80;98.00;;;21.82;35.84;100833.13;5002652;28;20044;-76
2023/03/12 07:18:21;;;;;;;10.77;2.55;;;17.00;97.30;;;21.79;35.32;100833.41;5026214;28;20032;-77
2023/03/12 07:20:47;;;;;;;10.50;2.72;;;17.20;94.90;;;21.60;34.92;100839.63;4997211;28;20036;-79
2023/03/12 07:23:13;;;;;;;7.60;2.83;;;17.40;95.10;;;21.71;35.26;100849.34;5023400;28;20081;-77
2023/03/12 07:25:41;;;;;;;12.73;2.47;;;17.70;96.50;;;22.17;34.99;100849.59;4992049;28;20024;-77
2023/03/12 07:28:08;;;;;;;6.60;2.22;;;18.10;94.00;;;22.08;34.29;100854.00;5008234;28;20040;-77
2023/03/12 07:30:37;;;;;;;8.38;2.40;;;18.50;94.30;;;22.37;34.29;100863.84;4975125;28;20037;-77
2023/03/12 07:33:10;;;;;;;13.27;2.20;;;18.90;94.30;;;22.58;34.68;100867.16;4910403;28;21523;-77
2023/03/12 07:35:41;;;;;;;14.73;3.00;;;19.30;93.70;;;22.81;34.12;100866.81;5001660;28;20046;-77
2023/03/12 07:38:07;;;;;;;7.63;2.28;;;19.70;93.70;;;22.57;34.18;100868.19;5046961;28;20020;-77
2023/03/12 07:40:34;;;;;;;12.90;3.05;;;19.70;91.20;;;21.45;34.51;100847.22;5025703;28;20516;-77
2023/03/12 07:43:01;;;;;;;13.45;2.28;;;19.70;92.90;;;21.31;35.63;100844.91;5025531;28;20047;-77
2023/03/12 07:45:32;;;;;;;8.10;2.60;;;19.70;92.30;;;21.28;35.54;100853.22;5004792;28;20037;-77
2023/03/12 07:47:57;;;;;;;12.00;2.28;;;19.50;87.90;;;20.53;34.97;100855.31;5012462;28;20043;-78
2023/03/12 07:50:23;;;;;;;10.02;2.08;;;19.10;86.80;;;19.82;35.18;100849.75;5037747;28;20033;-77
2023/03/12 07:52:49;;;;;;;11.13;2.40;;;19.10;92.00;;;20.01;36.08;100849.91;4983344;28;20170;-77
2023/03/12 07:55:15;;;;;;;5.75;2.30;;;19.30;90.70;;;20.06;36.04;100852.19;5023049;28;20397;-78
2023/03/12 07:57:41;;;;;;;10.90;2.47;;;19.50;91.30;;;20.27;35.99;100858.38;4962512;28;20034;-77
2023/03/12 08:00:12;;;;;;;14.57;3.03;;;19.60;91.50;;;20.38;36.00;100868.16;5007328;28;20119;-78
2023/03/12 08:02:39;;;;;;;10.60;2.30;;;19.80;90.70;;;19.92;36.33;100852.53;4996539;28;20043;-78
2023/03/12 08:05:06;;;;;;;12.82;2.65;;;19.90;90.30;;;19.70;36.73;100851.66;4984428;28;20883;-78
2023/03/12 08:07:33;;;;;;;10.75;2.88;;;19.80;89.00;;;19.56;36.41;100870.59;4998426;28;20032;-76
2023/03/12 08:10:04;;;;;;;6.38;2.60;;;19.80;89.40;;;19.38;36.90;100870.28;5000652;28;20032;-77
2023/03/12 08:12:30;;;;;;;11.25;2.67;;;19.80;90.60;;;19.39;37.40;100858.63;4996541;28;20095;-77
2023/03/12 08:14:56;;;;;;;8.65;3.00;;;19.90;87.50;;;19.07;37.03;100864.78;5012867;28;20054;-77
2023/03/12 08:17:22;;;;;;;9.95;2.70;;;19.90;88.40;;;18.83;37.47;100865.75;5009608;28;20024;-77
2023/03/12 08:19:48;;;;;;;8.90;2.83;;;19.70;88.90;;;18.73;37.59;100867.41;5014918;28;20037;-78
2023/03/12 08:22:14;;;;;;;177.90;89.93;;;19.70;89.30;;;18.52;37.83;100875.25;4961329;28;20108;-77
2023/03/12 08:24:40;;;;;;;10.68;2.53;;;19.60;88.70;;;18.23;38.13;100872.19;5026030;28;20037;-78
2023/03/12 08:27:10;;;;;;;11.68;2.63;;;19.50;87.40;;;18.14;38.17;100876.41;4960580;28;20028;-77
2023/03/12 08:29:37;;;;;;;11.65;3.25;;;19.40;88.70;;;17.92;38.44;100886.97;5002559;28;21429;-78
2023/03/12 08:32:03;;;;;;;9.45;2.60;;;19.40;87.00;;;17.84;38.48;100884.91;5028202;28;20094;-78
2023/03/12 08:34:29;;;;;;;10.20;3.10;;;19.30;87.90;;;17.65;38.64;100888.03;5008215;28;20070;-78
2023/03/12 08:37:02;;;;;;;13.48;2.40;;;19.20;88.30;;;17.40;38.97;100876.50;4987814;28;20032;-78
2023/03/12 08:39:29;;;;;;;10.07;3.10;;;19.10;88.20;;;17.32;39.26;100878.91;4960899;28;20049;-79
2023/03/12 08:41:54;;;;;;;9.00;2.50;;;18.90;88.20;;;17.06;39.62;100883.41;5007071;28;20595;-80
2023/03/12 08:44:26;;;;;;;9.13;2.65;;;18.80;89.70;;;17.19;39.53;100888.69;5017866;28;20037;-78
2023/03/12 08:46:52;;;;;;;13.07;2.60;;;18.80;88.60;;;17.08;39.50;100884.16;4991993;28;20032;-77
2023/03/12 08:49:20;;;;;;;11.30;2.75;;;18.80;88.60;;;16.99;39.58;100882.16;4999563;28;20032;-79
2023/03/12 08:51:46;;;;;;;13.75;2.63;;;18.70;87.80;;;16.97;39.47;100889.41;4978071;28;20045;-79
2023/03/12 08:54:12;;;;;;;12.63;2.38;;;18.80;88.50;;;17.16;39.34;100905.75;5000341;28;20024;-78
2023/03/12 08:56:51;;;;;;;15.50;2.67;;;18.90;89.20;;;17.32;38.86;100908.19;5027658;28;20086;-79
2023/03/12 08:59:19;;;;;;;8.70;2.30;;;18.90;87.70;;;17.42;38.71;100908.34;5016854;28;20411;-78
2023/03/12 09:01:54;;;;;;;11.75;2.78;;;18.70;89.30;;;17.22;38.94;100904.47;5040263;28;20067;-78
2023/03/12 09:04:20;;;;;;;6.00;2.00;;;18.50;88.60;;;16.71;39.75;100896.50;5012542;28;20020;-78
2023/03/12 09:06:45;;;;;;;11.60;2.40;;;18.00;89.20;;;15.93;40.35;100884.09;5006681;28;20040;-78
2023/03/12 09:09:19;;;;;;;7.90;2.40;;;17.40;90.00;;;15.44;41.37;100874.00;4993998;28;20040;-77
2023/03/12 09:11:45;;;;;;;7.72;2.13;;;16.60;90.90;;;14.94;42.18;100868.31;5000455;28;20119;-78
2023/03/12 09:14:12;;;;;;;14.88;2.33;;;16.00;91.10;;;14.40;42.67;100866.28;5016373;28;20044;-77
2023/03/12 09:16:38;;;;;;;10.48;2.20;;;15.50;90.90;;;14.00;42.64;100855.41;5009061;28;20442;-77
2023/03/12 09:19:12;;;;;;;10.75;2.50;;;15.10;92.40;;;13.85;43.57;100864.25;5047926;28;20032;-76
2023/03/12 09:21:39;;;;;;;10.07;1.80;;;14.70;92.80;;;13.47;44.13;100854.06;5014243;28;20041;-77
2023/03/12 09:24:05;;;;;;;11.18;2.50;;;14.40;92.60;;;12.99;44.58;100842.63;5011200;28;20121;-77
2023/03/12 09:26:35;;;;;;;7.53;1.60;;;13.90;92.80;;;12.57;45.00;100841.34;5022672;28;20037;-76
2023/03/12 09:29:04;;;;;;;11.70;2.00;;;13.50;93.90;;;12.24;46.43;100831.63;5013362;28;20098;-76
2023/03/12 09:31:30;;;;;;;10.90;2.20;;;13.00;94.20;;;11.46;47.17;100821.41;5036220;28;20028;-77
2023/03/12 09:34:05;;;;;;;15.95;4.22;;;12.50;95.20;;;10.88;48.89;100809.22;4995951;28;20090;-76
2023/03/12 09:36:37;;;;;;;15.13;4.03;;;12.00;96.30;;;10.72;50.44;100802.94;4994539;28;20063;-77
2023/03/12 09:39:08;;;;;;;10.70;3.55;;;11.80;97.30;;;10.99;50.37;100797.31;5009444;28;20067;-76
2023/03/12 09:41:42;;;;;;;13.48;4.10;;;11.70;97.50;;;10.80;51.40;100789.44;5008083;28;20101;-77
2023/03/12 09:44:15;;;;;;;11.45;3.60;;;11.50;97.40;;;10.41;51.14;100790.31;5032684;28;20401;-77
2023/03/12 09:47:25;;;;;;;13.52;3.28;;;11.30;96.80;;;9.68;51.66;100791.72;5035986;28;20135;-75
2023/03/12 09:50:04;;;;;;;11.52;2.95;;;10.90;97.60;;;9.36;52.63;100786.00;5009747;28;20390;-77
2023/03/12 09:52:47;;;;;;;12.90;3.05;;;10.50;97.80;;;8.95;53.23;100781.47;5033733;28;20048;-76
2023/03/12 09:55:24;;;;;;;13.07;3.15;;;10.20;98.40;;;8.86;53.45;100787.09;4970712;28;20092;-78
2023/03/12 09:57:57;;;;;;;12.75;3.40;;;10.10;98.70;;;8.77;54.08;100780.41;4987298;28;20084;-78
2023/03/12 10:00:38;;;;;;;13.27;2.88;;;10.00;98.70;;;8.54;54.12;100780.44;5027747;28;20028;-78
2023/03/12 10:03:56;;;;;;;12.35;3.05;;;9.80;98.90;;;8.19;54.87;100769.44;5027239;28;20045;-79
2023/03/12 10:06:54;;;;;;;20.00;4.75;;;9.60;99.40;;;8.02;55.96;100760.38;5022947;28;20045;-79
2023/03/12 10:10:30;;;;;;;13.00;4.20;;;9.50;99.90;;;8.19;55.64;100765.03;5038101;28;20039;-78
2023/03/12 10:13:33;;;;;;;15.98;4.18;;;9.50;99.90;;;7.98;55.85;100763.16;4999912;28;20101;-80
2023/03/12 10:16:32;;;;;;;13.77;3.47;;;9.30;99.80;;;7.62;56.21;100762.66;5023838;28;20032;-80
2023/03/12 10:19:16;;;;;;;11.77;2.80;;;9.20;99.90;;;7.81;56.86;100758.50;5025164;28;20048;-80
2023/03/12 10:22:35;;;;;;;11.35;3.40;;;9.10;99.90;;;7.83;56.27;100754.06;5002370;28;20593;-78
2023/03/12 10:25:12;;;;;;;15.82;3.45;;;9.10;99.90;;;7.84;55.81;100744.44;5018023;28;20044;-78
2023/03/12 10:27:42;;;;;;;11.43;3.65;;;9.10;99.90;;;7.86;55.33;100747.88;5022663;28;20176;-79